createdAt,value
2018-01-24T00:02:14.592Z,58.53
2018-01-24T00:04:43.049Z,59.52
2018-01-24T00:07:10.930Z,59.30
2018-01-24T00:09:38.474Z,58.48
2018-01-24T00:12:06.345Z,58.51
2018-01-24T00:14:33.850Z,58.80
2018-01-24T00:17:01.356Z,58.59
2018-01-24T00:19:28.922Z,58.70
2018-01-24T00:21:56.422Z,58.31
2018-01-24T00:24:24.192Z,58.69
2018-01-24T00:26:51.684Z,59.08
2018-01-24T00:29:19.176Z,58.92
2018-01-24T00:31:46.701Z,59.21
2018-01-24T00:34:14.195Z,58.04
2018-01-24T00:36:41.934Z,58.40
2018-01-24T00:39:09.455Z,58.79
2018-01-24T00:41:36.981Z,58.49
2018-01-24T00:44:04.518Z,58.82
2018-01-24T00:46:32.020Z,58.58
2018-01-24T00:48:59.693Z,59.12
2018-01-24T00:51:27.195Z,58.51
2018-01-24T00:53:54.690Z,59.01
2018-01-24T00:56:22.347Z,58.28
2018-01-24T00:58:49.861Z,59.01
2018-01-24T01:01:17.728Z,59.42
2018-01-24T01:03:45.229Z,58.85
2018-01-24T01:06:12.730Z,59.97
2018-01-24T01:08:40.256Z,59.67
2018-01-24T01:11:07.760Z,59.81
2018-01-24T01:13:35.539Z,59.87
2018-01-24T01:16:03.096Z,60.07
2018-01-24T01:18:30.596Z,59.83
2018-01-24T01:20:58.145Z,59.47
2018-01-24T01:23:25.641Z,59.66
2018-01-24T01:25:53.181Z,60.11
2018-01-24T01:28:20.689Z,59.98
2018-01-24T01:30:48.184Z,60.39
2018-01-24T01:33:15.720Z,59.94
2018-01-24T01:35:43.247Z,60.40
2018-01-24T01:38:11.013Z,60.23
2018-01-24T01:40:38.514Z,60.53
2018-01-24T01:43:06.027Z,59.78
2018-01-24T01:45:33.700Z,58.92
2018-01-24T01:48:01.212Z,59.38
2018-01-24T01:50:28.732Z,59.95
2018-01-24T01:52:56.232Z,59.42
2018-01-24T01:55:23.738Z,59.44
2018-01-24T01:57:51.264Z,59.79
2018-01-24T02:00:18.758Z,59.58
2018-01-24T02:02:46.316Z,59.74
2018-01-24T02:05:13.820Z,59.71
2018-01-24T02:07:41.317Z,59.53
2018-01-24T02:10:08.841Z,60.70
2018-01-24T02:12:36.342Z,60.12
2018-01-24T02:15:04.193Z,60.37
2018-01-24T02:17:31.714Z,61.09
2018-01-24T02:19:59.220Z,60.51
2018-01-24T02:22:26.740Z,60.59
2018-01-24T02:24:54.245Z,60.26
2018-01-24T02:27:21.776Z,60.67
2018-01-24T02:29:49.280Z,61.13
2018-01-24T02:32:16.776Z,60.87
2018-01-24T02:34:44.300Z,60.61
2018-01-24T02:37:11.806Z,61.10
2018-01-24T02:39:39.552Z,61.64
2018-01-24T02:42:07.054Z,61.02
2018-01-24T02:44:34.596Z,60.86
2018-01-24T02:47:03.078Z,60.16
2018-01-24T02:49:30.580Z,63.02
2018-01-24T02:51:58.110Z,61.93
2018-01-24T02:54:25.647Z,61.74
2018-01-24T02:56:53.144Z,61.16
2018-01-24T02:59:20.714Z,61.72
2018-01-24T03:01:48.302Z,60.72
2018-01-24T03:04:15.960Z,61.09
2018-01-24T03:06:43.456Z,61.07
2018-01-24T03:09:11.006Z,61.82
2018-01-24T03:11:38.565Z,61.46
2018-01-24T03:14:06.126Z,61.99
2018-01-24T03:16:33.695Z,60.88
2018-01-24T03:19:01.242Z,61.76
2018-01-24T03:21:28.740Z,61.28
2018-01-24T03:23:56.269Z,60.96
2018-01-24T03:26:23.920Z,61.09
2018-01-24T03:28:51.772Z,61.51
2018-01-24T03:31:19.268Z,61.66
2018-01-24T03:33:46.772Z,61.09
2018-01-24T03:36:14.304Z,62.22
2018-01-24T03:38:41.809Z,62.43
2018-01-24T03:41:09.445Z,62.29
2018-01-24T03:43:36.947Z,62.47
2018-01-24T03:46:04.498Z,61.29
2018-01-24T03:48:32.024Z,63.38
2018-01-24T03:50:59.538Z,63.37
2018-01-24T03:53:27.089Z,63.42
2018-01-24T03:55:54.629Z,63.87
2018-01-24T03:58:22.197Z,63.18
2018-01-24T04:00:49.751Z,63.71
2018-01-24T04:03:17.245Z,65.09
2018-01-24T04:05:44.968Z,64.81
2018-01-24T04:08:12.464Z,64.41
2018-01-24T04:10:39.963Z,64.62
2018-01-24T04:13:07.485Z,65.43
2018-01-24T04:15:35.102Z,65.50
2018-01-24T04:18:02.664Z,64.54
2018-01-24T04:20:30.221Z,65.11
2018-01-24T04:22:57.720Z,64.12
2018-01-24T04:25:25.243Z,64.94
2018-01-24T04:27:52.813Z,65.03
2018-01-24T04:30:20.368Z,65.43
2018-01-24T04:32:48.048Z,64.73
2018-01-24T04:35:15.542Z,65.47
2018-01-24T04:37:43.080Z,65.38
2018-01-24T04:40:10.591Z,66.01
2018-01-24T04:42:38.151Z,65.62
2018-01-24T04:45:05.734Z,65.26
2018-01-24T04:47:33.271Z,65.11
2018-01-24T04:50:00.850Z,65.69
2018-01-24T04:52:28.351Z,65.64
2018-01-24T04:54:55.872Z,65.21
2018-01-24T04:57:23.380Z,64.47
2018-01-24T04:59:50.877Z,65.73
2018-01-24T05:02:18.401Z,66.53
2018-01-24T05:04:46.112Z,65.67
2018-01-24T05:07:13.664Z,66.22
2018-01-24T05:09:41.199Z,67.04
2018-01-24T05:12:08.692Z,66.64
2018-01-24T05:14:36.237Z,67.46
2018-01-24T05:17:03.733Z,67.53
2018-01-24T05:19:31.268Z,66.69
2018-01-24T05:21:58.790Z,66.29
2018-01-24T05:24:26.292Z,66.18
2018-01-24T05:26:53.827Z,65.88
2018-01-24T05:29:21.333Z,67.47
2018-01-24T05:31:48.853Z,67.06
2018-01-24T05:34:16.381Z,66.45
2018-01-24T05:36:43.876Z,66.81
2018-01-24T05:39:11.410Z,67.74
2018-01-24T05:41:38.910Z,67.14
2018-01-24T05:44:06.799Z,67.73
2018-01-24T05:46:34.296Z,67.68
2018-01-24T05:49:02.760Z,68.08
2018-01-24T05:51:30.281Z,67.51
2018-01-24T05:53:57.781Z,67.90
2018-01-24T05:56:25.811Z,67.87
2018-01-24T05:58:53.316Z,67.72
2018-01-24T06:01:20.863Z,67.19
2018-01-24T06:03:48.407Z,68.23
2018-01-24T06:06:15.900Z,68.56
2018-01-24T06:08:43.420Z,67.89
2018-01-24T06:11:10.916Z,67.78
2018-01-24T06:13:38.429Z,68.15
2018-01-24T06:16:05.951Z,68.31
2018-01-24T06:18:33.456Z,68.21
2018-01-24T06:21:01.132Z,67.86
2018-01-24T06:23:28.690Z,68.23
2018-01-24T06:25:56.190Z,68.51
2018-01-24T06:28:23.811Z,68.32
2018-01-24T06:30:51.367Z,67.54
2018-01-24T06:33:19.131Z,67.99
2018-01-24T06:35:46.628Z,68.30
2018-01-24T06:38:14.148Z,67.96
2018-01-24T06:40:41.706Z,68.22
2018-01-24T06:43:09.210Z,68.07
2018-01-24T06:45:36.750Z,68.38
2018-01-24T06:48:04.281Z,67.50
2018-01-24T06:50:31.777Z,68.55
2018-01-24T06:52:59.305Z,67.51
2018-01-24T06:55:26.804Z,66.85
2018-01-24T06:57:54.519Z,67.11
2018-01-24T07:00:22.536Z,68.51
2018-01-24T07:02:50.044Z,67.59
2018-01-24T07:05:17.568Z,67.45
2018-01-24T07:07:45.077Z,67.43
2018-01-24T07:10:12.605Z,67.99
2018-01-24T07:12:51.828Z,68.11
2018-01-24T07:15:19.414Z,68.00
2018-01-24T07:17:46.916Z,67.89
2018-01-24T07:20:14.428Z,68.58
2018-01-24T07:22:41.987Z,67.98
2018-01-24T07:25:09.553Z,67.36
2018-01-24T07:27:37.105Z,67.53
2018-01-24T07:30:04.596Z,67.85
2018-01-24T07:32:32.098Z,68.63
2018-01-24T07:34:59.618Z,67.97
2018-01-24T07:37:27.116Z,68.81
2018-01-24T07:39:54.728Z,68.44
2018-01-24T07:42:22.255Z,67.71
2018-01-24T07:44:49.753Z,68.01
2018-01-24T07:47:18.296Z,67.96
2018-01-24T07:49:45.802Z,67.99
2018-01-24T07:52:13.618Z,66.89
2018-01-24T07:54:41.109Z,66.99
2018-01-24T07:57:08.615Z,68.28
2018-01-24T07:59:36.437Z,67.15
2018-01-24T08:02:03.957Z,67.53
2018-01-24T08:04:31.603Z,67.49
2018-01-24T08:06:59.102Z,66.89
2018-01-24T08:09:26.634Z,66.44
2018-01-24T08:11:54.194Z,66.01
2018-01-24T08:14:21.697Z,66.92
2018-01-24T08:16:49.414Z,67.32
2018-01-24T08:19:16.917Z,67.20
2018-01-24T08:21:44.430Z,66.92
2018-01-24T08:24:11.954Z,67.60
2018-01-24T08:26:39.452Z,66.21
2018-01-24T08:29:07.007Z,66.53
2018-01-24T08:31:34.507Z,66.84
2018-01-24T08:34:02.021Z,66.34
2018-01-24T08:36:29.580Z,66.41
2018-01-24T08:38:57.076Z,66.95
2018-01-24T08:41:24.628Z,66.03
2018-01-24T08:43:52.157Z,67.10
2018-01-24T08:46:19.665Z,65.99
2018-01-24T08:48:47.196Z,65.84
2018-01-24T08:51:14.705Z,65.70
2018-01-24T08:53:42.506Z,66.03
2018-01-24T08:56:10.055Z,66.55
2018-01-24T08:58:37.615Z,65.77
2018-01-24T09:01:05.171Z,65.81
2018-01-24T09:03:32.678Z,65.09
2018-01-24T09:06:00.221Z,65.04
2018-01-24T09:08:27.765Z,65.49
2018-01-24T09:10:55.305Z,64.67
2018-01-24T09:13:22.865Z,64.84
2018-01-24T09:15:50.372Z,64.54
2018-01-24T09:18:17.924Z,64.58
2018-01-24T09:20:45.428Z,64.15
2018-01-24T09:23:12.928Z,64.80
2018-01-24T09:25:40.455Z,64.15
2018-01-24T09:28:07.957Z,64.04
2018-01-24T09:30:35.565Z,63.43
2018-01-24T09:33:03.087Z,64.09
2018-01-24T09:35:30.630Z,62.62
2018-01-24T09:37:59.149Z,58.31
2018-01-24T09:40:26.668Z,49.58
2018-01-24T09:42:54.495Z,45.18
2018-01-24T09:45:22.055Z,41.53
2018-01-24T09:47:49.616Z,40.18
2018-01-24T09:50:17.136Z,39.58
2018-01-24T09:52:44.653Z,37.99
2018-01-24T09:55:12.188Z,37.04
2018-01-24T09:57:39.693Z,34.47
2018-01-24T10:00:07.203Z,34.73
2018-01-24T10:02:34.764Z,33.61
2018-01-24T10:05:02.263Z,35.45
2018-01-24T10:07:29.885Z,33.90
2018-01-24T10:09:57.383Z,32.83
2018-01-24T10:12:24.894Z,34.42
2018-01-24T10:14:52.838Z,34.75
2018-01-24T10:17:20.341Z,32.56
2018-01-24T10:19:48.044Z,33.31
2018-01-24T10:22:15.545Z,33.93
2018-01-24T10:24:43.060Z,35.09
2018-01-24T10:27:10.588Z,35.22
2018-01-24T10:29:38.223Z,33.37
2018-01-24T10:32:05.964Z,29.90
2018-01-24T10:34:33.465Z,27.78
2018-01-24T10:37:01.003Z,28.31
2018-01-24T10:39:28.563Z,34.37
2018-01-24T10:41:56.077Z,37.58
2018-01-24T10:44:23.780Z,35.74
2018-01-24T10:46:51.285Z,33.34
2018-01-24T10:49:18.788Z,33.11
2018-01-24T10:51:46.358Z,34.70
2018-01-24T10:54:13.913Z,34.61
2018-01-24T10:56:41.678Z,33.03
2018-01-24T10:59:09.243Z,31.29
2018-01-24T11:01:36.740Z,30.27
2018-01-24T11:04:05.175Z,29.45
2018-01-24T11:06:32.740Z,27.64
2018-01-24T11:09:00.499Z,27.94
2018-01-24T11:11:28.005Z,25.69
2018-01-24T11:13:55.530Z,25.27
2018-01-24T11:16:23.057Z,26.07
2018-01-24T11:18:50.569Z,27.54
2018-01-24T11:21:18.124Z,27.33
2018-01-24T11:23:45.648Z,28.30
2018-01-24T11:26:13.149Z,29.18
2018-01-24T11:28:40.680Z,29.18
2018-01-24T11:31:08.224Z,29.36
2018-01-24T11:33:35.988Z,29.09
2018-01-24T11:36:03.492Z,28.57
2018-01-24T11:38:31.001Z,29.46
2018-01-24T11:40:58.605Z,29.20
2018-01-24T11:43:26.121Z,31.49
2018-01-24T11:45:53.669Z,33.99
2018-01-24T11:48:21.176Z,33.91
2018-01-24T11:50:48.696Z,35.26
2018-01-24T11:53:16.222Z,34.29
2018-01-24T11:55:43.729Z,32.89
2018-01-24T11:58:11.476Z,33.35
2018-01-24T12:00:38.982Z,31.53
2018-01-24T12:03:06.481Z,27.50
2018-01-24T12:05:34.033Z,26.95
2018-01-24T12:08:01.611Z,27.86
2018-01-24T12:10:29.373Z,27.71
2018-01-24T12:12:56.897Z,28.23
2018-01-24T12:15:24.400Z,29.16
2018-01-24T12:17:52.358Z,28.92
2018-01-24T12:20:19.921Z,29.04
2018-01-24T12:22:48.104Z,30.52
2018-01-24T12:25:15.671Z,30.76
2018-01-24T12:27:43.289Z,29.69
2018-01-24T12:30:10.768Z,30.24
2018-01-24T12:32:38.311Z,26.16
2018-01-24T12:35:05.842Z,27.36
2018-01-24T12:37:33.345Z,28.03
2018-01-24T12:40:00.902Z,27.87
2018-01-24T12:42:28.460Z,29.53
2018-01-24T12:44:55.965Z,33.43
2018-01-24T12:47:23.664Z,37.50
2018-01-24T12:49:51.162Z,39.49
2018-01-24T12:52:18.698Z,42.60
2018-01-24T12:54:46.246Z,43.60
2018-01-24T12:57:13.752Z,44.27
2018-01-24T12:59:41.579Z,42.74
2018-01-24T13:02:09.081Z,43.50
2018-01-24T13:04:36.585Z,44.09
2018-01-24T13:07:04.170Z,46.42
2018-01-24T13:09:31.722Z,45.96
2018-01-24T13:11:59.269Z,45.14
2018-01-24T13:14:26.775Z,44.71
2018-01-24T13:16:54.290Z,46.18
2018-01-24T13:19:21.846Z,46.14
2018-01-24T13:21:49.407Z,45.11
2018-01-24T13:24:17.170Z,44.72
2018-01-24T13:26:44.670Z,46.08
2018-01-24T13:29:12.699Z,45.61
2018-01-24T13:31:40.257Z,45.62
2018-01-24T13:34:07.756Z,46.44
2018-01-24T13:36:35.388Z,46.98
2018-01-24T13:39:02.935Z,47.23
2018-01-24T13:41:30.493Z,46.24
2018-01-24T13:43:59.008Z,45.85
2018-01-24T13:46:26.533Z,45.59
2018-01-24T13:48:54.194Z,46.22
2018-01-24T13:51:21.697Z,45.77
2018-01-24T13:53:49.221Z,45.74
2018-01-24T13:56:17.094Z,47.50
2018-01-24T13:58:44.601Z,47.20
2018-01-24T14:01:12.152Z,47.31
2018-01-24T14:03:39.685Z,47.17
2018-01-24T14:06:07.210Z,47.13
2018-01-24T14:08:34.770Z,47.32
2018-01-24T14:11:02.279Z,46.12
2018-01-24T14:13:30.095Z,47.17
2018-01-24T14:15:57.655Z,47.33
2018-01-24T14:18:25.211Z,47.35
2018-01-24T14:20:52.744Z,47.24
2018-01-24T14:23:20.250Z,46.92
2018-01-24T14:25:47.816Z,47.25
2018-01-24T14:28:15.347Z,47.24
2018-01-24T14:30:42.857Z,47.18
2018-01-24T14:33:10.389Z,46.52
2018-01-24T14:35:37.919Z,46.60
2018-01-24T14:38:05.472Z,46.85
2018-01-24T14:40:33.040Z,47.61
2018-01-24T14:43:00.598Z,48.31
2018-01-24T14:45:28.145Z,48.36
2018-01-24T14:47:55.653Z,49.13
2018-01-24T14:50:23.355Z,49.12
2018-01-24T14:52:50.857Z,48.40
2018-01-24T14:55:18.392Z,49.81
2018-01-24T14:57:45.952Z,49.30
2018-01-24T15:00:13.512Z,49.89
2018-01-24T15:02:41.050Z,49.94
2018-01-24T15:05:08.552Z,49.29
2018-01-24T15:07:36.157Z,50.06
2018-01-24T15:10:03.679Z,49.85
2018-01-24T15:12:31.185Z,49.79
2018-01-24T15:14:59.071Z,50.12
2018-01-24T15:17:26.690Z,50.73
2018-01-24T15:19:54.171Z,51.19
2018-01-24T15:22:22.158Z,49.90
2018-01-24T15:24:49.725Z,51.24
2018-01-24T15:27:17.686Z,50.09
2018-01-24T15:29:45.192Z,49.92
2018-01-24T15:32:12.724Z,50.49
2018-01-24T15:34:40.260Z,49.59
2018-01-24T15:37:07.767Z,50.13
2018-01-24T15:39:35.482Z,50.06
2018-01-24T15:42:03.040Z,50.46
2018-01-24T15:44:30.545Z,50.69
2018-01-24T15:46:58.072Z,52.49
2018-01-24T15:49:25.614Z,51.13
2018-01-24T15:51:53.626Z,50.91
2018-01-24T15:54:21.172Z,50.98
2018-01-24T15:56:48.702Z,50.73
2018-01-24T15:59:16.227Z,51.22
2018-01-24T16:01:43.740Z,50.65
2018-01-24T16:04:11.300Z,49.92
2018-01-24T16:06:38.837Z,50.88
2018-01-24T16:09:06.377Z,50.68
2018-01-24T16:11:33.904Z,50.84
2018-01-24T16:14:01.680Z,51.35
2018-01-24T16:16:29.584Z,51.23
2018-01-24T16:18:57.101Z,51.36
2018-01-24T16:21:25.036Z,51.81
2018-01-24T16:23:52.570Z,51.92
2018-01-24T16:26:20.231Z,52.71
2018-01-24T16:28:48.096Z,51.30
2018-01-24T16:31:15.957Z,51.31
2018-01-24T16:33:48.592Z,51.51
2018-01-24T16:36:16.201Z,52.16
2018-01-24T16:38:43.741Z,52.32
2018-01-24T16:41:11.532Z,53.17
2018-01-24T16:43:40.025Z,52.73
2018-01-24T16:46:07.565Z,52.77
2018-01-24T16:48:35.894Z,52.69
2018-01-24T16:51:04.593Z,53.31
2018-01-24T16:53:32.597Z,53.32
2018-01-24T16:56:01.087Z,52.96
2018-01-24T16:58:28.931Z,52.93
2018-01-24T17:00:56.502Z,52.73
2018-01-24T17:03:24.062Z,52.40
2018-01-24T17:05:51.989Z,52.32
2018-01-24T17:08:19.897Z,51.78
2018-01-24T17:10:47.795Z,50.65
2018-01-24T17:13:15.827Z,50.25
2018-01-24T17:15:43.705Z,49.76
2018-01-24T17:18:11.509Z,49.78
2018-01-24T17:20:39.332Z,48.78
2018-01-24T17:23:07.116Z,48.37
2018-01-24T17:25:34.909Z,49.14
2018-01-24T17:28:02.624Z,49.73
2018-01-24T17:30:30.256Z,48.46
2018-01-24T17:32:58.151Z,48.48
2018-01-24T17:35:25.978Z,48.29
2018-01-24T17:37:53.883Z,47.40
2018-01-24T17:40:21.653Z,48.14
2018-01-24T17:42:49.401Z,48.05
2018-01-24T17:45:17.672Z,47.46
2018-01-24T17:47:45.334Z,48.18
2018-01-24T17:50:14.006Z,47.32
2018-01-24T17:52:41.797Z,47.33
2018-01-24T17:55:09.665Z,46.84
2018-01-24T17:57:38.454Z,47.64
2018-01-24T18:00:06.533Z,48.17
2018-01-24T18:02:40.212Z,47.96
2018-01-24T18:05:08.102Z,46.93
2018-01-24T18:07:38.486Z,46.94
2018-01-24T18:10:06.337Z,47.52
2018-01-24T18:12:34.051Z,47.38
2018-01-24T18:15:03.572Z,47.66
2018-01-24T18:17:31.622Z,48.19
2018-01-24T18:19:59.393Z,47.95
2018-01-24T18:22:27.166Z,48.05
2018-01-24T18:24:55.120Z,47.79
2018-01-24T18:27:23.434Z,47.90
2018-01-24T18:29:51.669Z,48.45
2018-01-24T18:32:19.643Z,47.22
2018-01-24T18:34:47.835Z,48.10
2018-01-24T18:37:16.826Z,48.22
2018-01-24T18:39:44.689Z,48.75
2018-01-24T18:42:13.175Z,48.95
2018-01-24T18:44:41.144Z,48.12
2018-01-24T18:47:08.909Z,49.03
2018-01-24T18:49:37.163Z,48.79
2018-01-24T18:52:05.149Z,48.90
2018-01-24T18:54:33.308Z,48.36
2018-01-24T18:57:01.185Z,47.86
2018-01-24T18:59:30.269Z,47.21
2018-01-24T19:01:58.154Z,46.85
2018-01-24T19:04:26.323Z,47.61
2018-01-24T19:06:54.787Z,47.67
2018-01-24T19:09:22.552Z,47.55
2018-01-24T19:11:50.417Z,47.96
2018-01-24T19:14:18.303Z,47.97
2018-01-24T19:16:46.251Z,47.41
2018-01-24T19:19:14.119Z,47.49
2018-01-24T19:21:41.894Z,48.59
2018-01-24T19:24:10.823Z,48.31
2018-01-24T19:26:38.742Z,48.21
2018-01-24T19:29:06.529Z,48.20
2018-01-24T19:31:35.610Z,49.08
2018-01-24T19:34:04.312Z,48.35
2018-01-24T19:36:32.254Z,49.31
2018-01-24T19:39:00.139Z,49.10
2018-01-24T19:41:27.907Z,49.37
2018-01-24T19:43:55.956Z,49.58
2018-01-24T19:46:23.914Z,50.30
2018-01-24T19:48:51.792Z,49.95
2018-01-24T19:51:19.863Z,50.34
2018-01-24T19:53:48.129Z,50.77
2018-01-24T19:56:16.487Z,50.18
2018-01-24T19:58:44.294Z,50.82
2018-01-24T20:01:12.254Z,50.76
2018-01-24T20:03:40.026Z,50.93
2018-01-24T20:06:07.895Z,50.91
2018-01-24T20:08:36.259Z,50.06
2018-01-24T20:11:04.572Z,50.40
2018-01-24T20:13:32.422Z,50.12
2018-01-24T20:16:00.386Z,50.53
2018-01-24T20:18:28.338Z,51.16
2018-01-24T20:20:56.819Z,50.13
2018-01-24T20:23:24.669Z,50.70
2018-01-24T20:25:52.945Z,50.73
2018-01-24T20:28:21.234Z,50.48
2018-01-24T20:30:49.069Z,50.16
2018-01-24T20:33:17.087Z,50.17
2018-01-24T20:35:45.328Z,50.14
2018-01-24T20:38:13.123Z,50.54
2018-01-24T20:40:40.994Z,50.78
2018-01-24T20:43:08.747Z,51.43
2018-01-24T20:45:36.623Z,50.75
2018-01-24T20:48:04.579Z,50.84
2018-01-24T20:50:32.352Z,50.27
2018-01-24T20:53:00.214Z,50.75
2018-01-24T20:55:28.179Z,50.93
2018-01-24T20:57:56.212Z,50.67
2018-01-24T21:00:24.627Z,50.78
2018-01-24T21:02:52.408Z,50.94
2018-01-24T21:05:20.382Z,51.13
2018-01-24T21:07:48.124Z,51.12
2018-01-24T21:10:16.310Z,50.97
2018-01-24T21:12:44.997Z,51.04
2018-01-24T21:15:12.858Z,51.45
2018-01-24T21:17:40.729Z,51.45
2018-01-24T21:20:08.478Z,50.92
2018-01-24T21:22:36.448Z,51.21
2018-01-24T21:25:04.364Z,50.63
2018-01-24T21:27:32.180Z,50.47
2018-01-24T21:30:11.737Z,50.68
2018-01-24T21:32:51.372Z,50.07
2018-01-24T21:35:31.005Z,50.47
2018-01-24T21:37:59.900Z,50.91
2018-01-24T21:40:28.429Z,50.80
2018-01-24T21:42:57.748Z,52.03
2018-01-24T21:45:25.646Z,50.86
2018-01-24T21:47:53.204Z,51.58
2018-01-24T21:50:20.763Z,51.58
2018-01-24T21:52:48.732Z,50.87
2018-01-24T21:55:16.292Z,51.40
2018-01-24T21:57:43.911Z,51.53
2018-01-24T22:00:11.481Z,51.03
2018-01-24T22:02:39.010Z,51.34
2018-01-24T22:05:06.709Z,51.25
2018-01-24T22:07:34.209Z,51.08
2018-01-24T22:10:01.751Z,51.43
2018-01-24T22:12:29.308Z,51.38
2018-01-24T22:14:56.808Z,51.52
2018-01-24T22:17:24.501Z,51.39
2018-01-24T22:19:52.012Z,51.60
2018-01-24T22:22:19.524Z,51.41
2018-01-24T22:24:47.055Z,51.17
2018-01-24T22:27:14.565Z,51.43
2018-01-24T22:29:42.266Z,51.72
2018-01-24T22:32:09.862Z,51.13
2018-01-24T22:34:37.372Z,51.79
2018-01-24T22:37:04.897Z,52.00
2018-01-24T22:39:32.413Z,51.23
2018-01-24T22:42:00.101Z,51.34
2018-01-24T22:44:27.609Z,51.61
2018-01-24T22:46:55.139Z,51.32
2018-01-24T22:49:22.672Z,51.54
2018-01-24T22:51:50.181Z,51.72
2018-01-24T22:54:17.714Z,51.55
2018-01-24T22:56:45.213Z,51.05
2018-01-24T22:59:12.931Z,51.05
2018-01-24T23:01:40.438Z,50.90
2018-01-24T23:04:07.949Z,50.89
2018-01-24T23:06:35.480Z,51.30
2018-01-24T23:09:03.056Z,50.77
2018-01-24T23:11:30.625Z,51.14
2018-01-24T23:13:58.124Z,51.06
2018-01-24T23:16:25.640Z,51.04
2018-01-24T23:18:53.199Z,51.30
2018-01-24T23:21:20.704Z,50.57
2018-01-24T23:23:48.587Z,51.04
2018-01-24T23:26:16.072Z,51.27
2018-01-24T23:28:43.589Z,50.61
2018-01-24T23:31:11.122Z,50.29
2018-01-24T23:33:38.635Z,50.70
2018-01-24T23:36:06.524Z,51.34
2018-01-24T23:38:34.068Z,50.96
2018-01-24T23:41:01.792Z,50.87
2018-01-24T23:43:29.337Z,51.13
2018-01-24T23:45:56.863Z,51.43
2018-01-24T23:48:24.433Z,51.06
2018-01-24T23:50:51.933Z,50.96
2018-01-24T23:53:19.523Z,50.49
2018-01-24T23:55:47.100Z,50.69
2018-01-24T23:58:14.604Z,50.60
